Time,TemperatureF,DewpointF,PressureIn,WindDirection,WindDirectionDegrees,WindSpeedMPH,WindSpeedGustMPH,Humidity,HourlyPrecipIn,Conditions,Clouds,dailyrainin,SoftwareType,DateUTC
2013-10-15 00:05:00,63.5,61.2,30.21,West,270,0.7,1.6,92,0.00,,,0.00,meteobridge,2013-10-15 06:05:00,
2013-10-15 00:12:00,63.3,61.0,30.21,West,270,0.0,0.0,92,0.00,,,0.00,meteobridge,2013-10-15 06:12:00,
2013-10-15 00:18:00,63.3,61.0,30.21,North,0,0.0,1.6,92,0.00,,,0.00,meteobridge,2013-10-15 06:18:00,
2013-10-15 00:24:00,63.3,61.0,30.21,North,0,0.7,1.6,92,0.00,,,0.00,meteobridge,2013-10-15 06:24:00,
2013-10-15 00:31:00,63.3,61.3,30.21,North,0,2.2,2.2,93,0.00,,,0.00,meteobridge,2013-10-15 06:31:00,
2013-10-15 00:37:00,63.1,61.2,30.21,North,0,1.6,1.6,93,0.00,,,0.00,meteobridge,2013-10-15 06:37:00,
2013-10-15 00:43:00,63.1,61.2,30.21,North,0,0.0,0.0,93,0.00,,,0.00,meteobridge,2013-10-15 06:43:00,
2013-10-15 00:50:00,63.1,61.2,30.21,North,0,0.0,0.0,93,0.00,,,0.00,meteobridge,2013-10-15 06:50:00,
2013-10-15 00:56:00,63.1,60.8,30.20,North,0,0.0,0.0,92,0.00,,,0.00,meteobridge,2013-10-15 06:56:00,
2013-10-15 01:02:00,63.3,61.0,30.20,North,0,0.0,0.0,92,0.00,,,0.00,meteobridge,2013-10-15 07:02:00,
2013-10-15 01:09:00,63.3,61.0,30.19,North,0,0.0,0.0,92,0.00,,,0.00,meteobridge,2013-10-15 07:09:00,
2013-10-15 01:15:00,63.0,60.6,30.19,North,0,0.0,0.0,92,0.00,,,0.00,meteobridge,2013-10-15 07:15:00,
2013-10-15 01:21:00,63.1,60.8,30.19,North,0,0.0,0.0,92,0.00,,,0.00,meteobridge,2013-10-15 07:21:00,
2013-10-15 01:30:00,63.1,60.8,30.19,North,0,0.0,0.0,92,0.00,,,0.00,meteobridge,2013-10-15 07:30:00,
2013-10-15 01:36:00,63.1,60.8,30.19,North,0,0.0,0.0,92,0.00,,,0.00,meteobridge,2013-10-15 07:36:00,
2013-10-15 01:43:00,63.1,60.8,30.19,North,0,0.0,0.0,92,0.00,,,0.00,meteobridge,2013-10-15 07:43:00,
2013-10-15 01:49:00,63.1,60.8,30.19,North,0,0.0,0.0,92,0.00,,,0.00,meteobridge,2013-10-15 07:49:00,
2013-10-15 01:55:00,63.0,60.6,30.18,North,0,0.0,0.0,92,0.00,,,0.00,meteobridge,2013-10-15 07:55:00,
2013-10-15 02:02:00,63.0,60.6,30.18,North,0,0.0,0.0,92,0.00,,,0.00,meteobridge,2013-10-15 08:02:00,
2013-10-15 02:08:00,63.0,60.6,30.18,North,0,0.0,0.0,92,0.00,,,0.00,meteobridge,2013-10-15 08:08:00,
2013-10-15 02:14:00,63.0,60.6,30.18,North,0,0.0,0.0,92,0.00,,,0.00,meteobridge,2013-10-15 08:14:00,
2013-10-15 02:21:00,63.0,60.6,30.18,North,0,0.0,0.0,92,0.00,,,0.00,meteobridge,2013-10-15 08:21:00,
2013-10-15 02:27:00,63.0,61.0,30.18,North,0,0.0,0.0,93,0.00,,,0.00,meteobridge,2013-10-15 08:27:00,
2013-10-15 02:33:00,63.0,60.6,30.17,North,0,0.0,0.0,92,0.00,,,0.00,meteobridge,2013-10-15 08:33:00,
2013-10-15 02:40:00,63.0,60.6,30.17,North,0,0.0,0.0,92,0.00,,,0.00,meteobridge,2013-10-15 08:40:00,
2013-10-15 02:46:00,62.8,60.4,30.17,North,0,0.0,0.0,92,0.00,,,0.00,meteobridge,2013-10-15 08:46:00,
2013-10-15 02:50:00,62.6,60.3,30.17,NE,45,0.0,0.0,92,0.00,,,0.00,meteobridge,2013-10-15 08:50:00,
2013-10-15 02:57:00,62.4,60.4,30.17,South,180,0.0,0.0,93,0.00,,,0.00,meteobridge,2013-10-15 08:57:00,
2013-10-15 03:03:00,62.2,60.3,30.16,South,180,0.0,0.0,93,0.00,,,0.00,meteobridge,2013-10-15 09:03:00,
2013-10-15 03:09:00,61.9,59.9,30.16,South,180,0.0,0.0,93,0.00,,,0.00,meteobridge,2013-10-15 09:09:00,
2013-10-15 03:16:00,61.5,59.5,30.16,East,90,0.0,0.0,93,0.00,,,0.00,meteobridge,2013-10-15 09:16:00,
2013-10-15 03:22:00,61.5,59.5,30.16,East,90,0.0,0.0,93,0.00,,,0.00,meteobridge,2013-10-15 09:22:00,
2013-10-15 03:28:00,61.0,59.0,30.16,SE,135,0.0,0.0,93,0.00,,,0.00,meteobridge,2013-10-15 09:28:00,
2013-10-15 03:35:00,61.0,58.6,30.16,SE,135,0.0,0.0,92,0.00,,,0.00,meteobridge,2013-10-15 09:35:00,
2013-10-15 03:41:00,61.0,58.6,30.16,South,180,3.1,3.1,92,0.00,,,0.00,meteobridge,2013-10-15 09:41:00,
2013-10-15 03:47:00,61.0,58.3,30.16,South,180,2.2,3.1,91,0.00,,,0.00,meteobridge,2013-10-15 09:47:00,
2013-10-15 03:54:00,61.0,57.7,30.16,SE,135,1.6,3.1,89,0.00,,,0.00,meteobridge,2013-10-15 09:54:00,
2013-10-15 04:00:00,60.6,57.7,30.16,South,180,2.2,3.1,90,0.00,,,0.00,meteobridge,2013-10-15 10:00:00,
2013-10-15 04:06:00,60.8,57.2,30.17,SE,135,0.7,2.2,88,0.00,,,0.00,meteobridge,2013-10-15 10:06:00,
2013-10-15 04:13:00,60.4,56.8,30.16,SW,225,5.4,5.4,88,0.00,,,0.00,meteobridge,2013-10-15 10:13:00,
2013-10-15 04:19:00,60.4,56.8,30.17,SE,135,1.6,3.8,88,0.00,,,0.00,meteobridge,2013-10-15 10:19:00,
2013-10-15 04:25:00,60.1,56.5,30.17,South,180,0.7,1.6,88,0.00,,,0.00,meteobridge,2013-10-15 10:25:00,
2013-10-15 04:32:00,60.3,56.7,30.17,SE,135,2.2,3.1,88,0.00,,,0.00,meteobridge,2013-10-15 10:32:00,
2013-10-15 04:38:00,60.3,56.7,30.18,SE,135,3.8,4.5,88,0.00,,,0.00,meteobridge,2013-10-15 10:38:00,
2013-10-15 04:44:00,60.3,56.7,30.18,South,180,0.0,1.6,88,0.00,,,0.00,meteobridge,2013-10-15 10:44:00,
2013-10-15 04:51:00,60.3,56.7,30.18,SE,135,1.6,2.2,88,0.00,,,0.00,meteobridge,2013-10-15 10:51:00,
2013-10-15 04:57:00,60.1,56.8,30.19,East,90,3.8,3.8,89,0.00,,,0.00,meteobridge,2013-10-15 10:57:00,
2013-10-15 05:06:00,60.4,57.2,30.19,South,180,0.0,1.6,89,0.00,,,0.00,meteobridge,2013-10-15 11:06:00,
2013-10-15 05:12:00,60.4,57.2,30.20,SE,135,0.0,0.7,89,0.00,,,0.00,meteobridge,2013-10-15 11:12:00,
2013-10-15 05:18:00,60.3,57.0,30.20,SE,135,2.2,3.1,89,0.00,,,0.00,meteobridge,2013-10-15 11:18:00,
2013-10-15 05:25:00,60.3,57.0,30.21,SE,135,3.1,3.8,89,0.00,,,0.00,meteobridge,2013-10-15 11:25:00,
2013-10-15 05:31:00,60.3,56.7,30.21,South,180,0.7,3.1,88,0.00,,,0.00,meteobridge,2013-10-15 11:31:00,
2013-10-15 05:37:00,60.6,57.4,30.21,SE,135,1.6,1.6,89,0.00,,,0.00,meteobridge,2013-10-15 11:37:00,
2013-10-15 05:44:00,61.0,57.7,30.21,NE,45,2.2,2.2,89,0.00,,,0.00,meteobridge,2013-10-15 11:44:00,
2013-10-15 05:50:00,61.3,58.1,30.22,South,180,2.2,2.2,89,0.00,,,0.00,meteobridge,2013-10-15 11:50:00,
2013-10-15 05:56:00,61.5,58.3,30.22,South,180,0.0,0.7,89,0.00,,,0.00,meteobridge,2013-10-15 11:56:00,
2013-10-15 06:03:00,61.7,58.1,30.22,South,180,0.0,0.0,88,0.00,,,0.00,meteobridge,2013-10-15 12:03:00,
2013-10-15 06:09:00,62.1,58.5,30.22,South,180,0.0,1.6,88,0.00,,,0.00,meteobridge,2013-10-15 12:09:00,
2013-10-15 06:16:00,62.6,58.6,30.22,South,180,1.6,2.2,87,0.00,,,0.00,meteobridge,2013-10-15 12:16:00,
2013-10-15 06:22:00,63.5,59.5,30.22,SE,135,0.0,2.2,87,0.00,,,0.00,meteobridge,2013-10-15 12:22:00,
2013-10-15 06:28:00,64.9,61.0,30.22,South,180,0.0,0.0,87,0.00,,,0.00,meteobridge,2013-10-15 12:28:00,
2013-10-15 06:35:00,66.9,61.9,30.22,South,180,0.0,0.0,84,0.00,,,0.00,meteobridge,2013-10-15 12:35:00,
2013-10-15 06:41:00,66.7,60.1,30.23,South,180,0.0,0.0,79,0.00,,,0.00,meteobridge,2013-10-15 12:41:00,
2013-10-15 06:47:00,66.2,59.2,30.23,West,270,0.0,0.0,78,0.00,,,0.00,meteobridge,2013-10-15 12:47:00,
2013-10-15 06:54:00,64.6,58.3,30.24,West,270,1.6,3.1,80,0.00,,,0.00,meteobridge,2013-10-15 12:54:00,
2013-10-15 07:00:00,64.6,59.4,30.24,West,270,0.0,0.7,83,0.00,,,0.00,meteobridge,2013-10-15 13:00:00,
2013-10-15 07:06:00,65.7,60.4,30.24,West,270,0.0,0.0,83,0.00,,,0.00,meteobridge,2013-10-15 13:06:00,
2013-10-15 07:13:00,65.8,60.3,30.24,West,270,0.0,0.0,82,0.00,,,0.00,meteobridge,2013-10-15 13:13:00,
2013-10-15 07:19:00,67.1,60.8,30.24,West,270,0.0,0.0,80,0.00,,,0.00,meteobridge,2013-10-15 13:19:00,
2013-10-15 07:25:00,70.0,62.1,30.24,West,270,0.0,0.7,76,0.00,,,0.00,meteobridge,2013-10-15 13:25:00,
2013-10-15 07:32:00,68.9,59.9,30.25,NW,315,0.0,0.0,73,0.00,,,0.00,meteobridge,2013-10-15 13:32:00,
2013-10-15 07:38:00,68.4,59.4,30.25,West,270,2.2,2.2,73,0.00,,,0.00,meteobridge,2013-10-15 13:38:00,
2013-10-15 07:44:00,67.5,58.8,30.25,West,270,0.0,0.7,74,0.00,,,0.00,meteobridge,2013-10-15 13:44:00,
2013-10-15 07:51:00,68.7,59.7,30.25,West,270,3.1,3.1,73,0.00,,,0.00,meteobridge,2013-10-15 13:51:00,
2013-10-15 07:57:00,70.2,59.9,30.25,West,270,1.6,2.2,70,0.00,,,0.00,meteobridge,2013-10-15 13:57:00,
2013-10-15 08:03:00,69.8,58.3,30.26,West,270,0.0,3.8,67,0.00,,,0.00,meteobridge,2013-10-15 14:03:00,
2013-10-15 08:10:00,73.4,61.3,30.26,West,270,0.7,0.7,66,0.00,,,0.00,meteobridge,2013-10-15 14:10:00,
2013-10-15 08:16:00,70.9,58.1,30.26,SW,225,3.1,3.8,64,0.00,,,0.00,meteobridge,2013-10-15 14:16:00,
2013-10-15 08:22:00,69.4,58.5,30.26,NW,315,3.1,3.1,68,0.00,,,0.00,meteobridge,2013-10-15 14:22:00,
2013-10-15 08:29:00,68.5,59.2,30.27,West,270,3.1,3.8,72,0.00,,,0.00,meteobridge,2013-10-15 14:29:00,
2013-10-15 08:35:00,70.0,59.4,30.27,West,270,0.7,3.1,69,0.00,,,0.00,meteobridge,2013-10-15 14:35:00,
2013-10-15 08:41:00,75.0,62.4,30.27,SE,135,3.1,3.1,65,0.00,,,0.00,meteobridge,2013-10-15 14:41:00,
2013-10-15 08:48:00,72.9,58.6,30.27,West,270,3.8,3.8,61,0.00,,,0.00,meteobridge,2013-10-15 14:48:00,
2013-10-15 08:54:00,71.4,55.9,30.27,West,270,3.1,6.0,58,0.00,,,0.00,meteobridge,2013-10-15 14:54:00,
2013-10-15 09:00:00,72.1,58.5,30.27,NW,315,4.5,4.5,62,0.00,,,0.00,meteobridge,2013-10-15 15:00:00,
2013-10-15 09:07:00,71.1,58.3,30.27,North,0,3.1,4.5,64,0.00,,,0.00,meteobridge,2013-10-15 15:07:00,
2013-10-15 09:13:00,71.1,58.3,30.27,North,0,5.4,5.4,64,0.00,,,0.00,meteobridge,2013-10-15 15:13:00,
2013-10-15 09:19:00,71.1,58.3,30.27,North,0,1.6,3.8,64,0.00,,,0.00,meteobridge,2013-10-15 15:19:00,
2013-10-15 09:26:00,70.5,58.1,30.27,North,0,6.9,6.9,65,0.00,,,0.00,meteobridge,2013-10-15 15:26:00,
2013-10-15 09:32:00,72.3,59.5,30.27,NW,315,2.2,3.1,64,0.00,,,0.00,meteobridge,2013-10-15 15:32:00,
2013-10-15 09:39:00,72.0,59.2,30.27,North,0,4.5,6.0,64,0.00,,,0.00,meteobridge,2013-10-15 15:39:00,
2013-10-15 09:45:00,73.8,59.5,30.26,NE,45,4.5,4.5,61,0.00,,,0.00,meteobridge,2013-10-15 15:45:00,
2013-10-15 09:51:00,72.0,57.7,30.26,NW,315,4.5,4.5,61,0.00,,,0.00,meteobridge,2013-10-15 15:51:00,
2013-10-15 09:58:00,72.1,57.9,30.26,North,0,4.5,4.5,61,0.00,,,0.00,meteobridge,2013-10-15 15:58:00,
2013-10-15 10:04:00,74.1,58.5,30.25,NW,315,2.2,2.2,58,0.00,,,0.00,meteobridge,2013-10-15 16:04:00,
2013-10-15 10:10:00,72.5,58.8,30.25,North,0,6.0,6.0,62,0.00,,,0.00,meteobridge,2013-10-15 16:10:00,
2013-10-15 10:19:00,74.5,59.7,30.25,NE,45,5.4,6.0,60,0.00,,,0.00,meteobridge,2013-10-15 16:19:00,
2013-10-15 10:25:00,72.9,58.6,30.25,North,0,7.6,7.6,61,0.00,,,0.00,meteobridge,2013-10-15 16:25:00,
2013-10-15 10:31:00,72.3,59.9,30.25,North,0,5.4,5.4,65,0.00,,,0.00,meteobridge,2013-10-15 16:31:00,
2013-10-15 10:38:00,71.6,59.7,30.24,NW,315,6.0,7.6,66,0.00,,,0.00,meteobridge,2013-10-15 16:38:00,
2013-10-15 10:44:00,74.5,61.9,30.24,North,0,9.2,9.2,65,0.00,,,0.00,meteobridge,2013-10-15 16:44:00,
2013-10-15 10:50:00,74.8,60.4,30.24,East,90,4.5,4.5,61,0.00,,,0.00,meteobridge,2013-10-15 16:50:00,
2013-10-15 10:57:00,73.9,59.2,30.24,North,0,6.9,11.4,60,0.00,,,0.00,meteobridge,2013-10-15 16:57:00,
2013-10-15 11:03:00,74.7,61.2,30.24,North,0,5.4,6.0,63,0.00,,,0.00,meteobridge,2013-10-15 17:03:00,
2013-10-15 11:09:00,74.1,60.3,30.24,East,90,5.4,7.6,62,0.00,,,0.00,meteobridge,2013-10-15 17:09:00,
2013-10-15 11:16:00,75.9,61.5,30.23,North,0,6.9,6.9,61,0.00,,,0.00,meteobridge,2013-10-15 17:16:00,
2013-10-15 11:22:00,74.1,59.4,30.23,NE,45,4.5,4.5,60,0.00,,,0.00,meteobridge,2013-10-15 17:22:00,
2013-10-15 11:28:00,73.2,59.9,30.23,NW,315,4.5,6.0,63,0.00,,,0.00,meteobridge,2013-10-15 17:28:00,
2013-10-15 11:35:00,74.8,61.9,30.23,West,270,5.4,8.3,64,0.00,,,0.00,meteobridge,2013-10-15 17:35:00,
2013-10-15 11:43:00,73.8,60.8,30.22,NW,315,7.6,7.6,64,0.01,,,0.01,meteobridge,2013-10-15 17:43:00,
2013-10-15 11:50:00,72.9,60.8,30.22,North,0,9.2,9.2,66,0.01,,,0.01,meteobridge,2013-10-15 17:50:00,
2013-10-15 11:56:00,71.1,60.4,30.22,NW,315,6.9,10.7,69,0.01,,,0.01,meteobridge,2013-10-15 17:56:00,
2013-10-15 12:02:00,71.4,61.5,30.22,North,0,6.9,6.9,71,0.01,,,0.01,meteobridge,2013-10-15 18:02:00,
2013-10-15 12:09:00,70.7,61.2,30.21,North,0,8.3,8.3,72,0.01,,,0.01,meteobridge,2013-10-15 18:09:00,
2013-10-15 12:15:00,69.8,60.8,30.22,NW,315,9.2,9.8,73,0.01,,,0.01,meteobridge,2013-10-15 18:15:00,
2013-10-15 12:21:00,68.9,61.3,30.22,NW,315,7.6,8.3,77,0.01,,,0.01,meteobridge,2013-10-15 18:21:00,
2013-10-15 12:28:00,68.2,61.7,30.22,North,0,6.0,9.8,80,0.01,,,0.01,meteobridge,2013-10-15 18:28:00,
2013-10-15 12:34:00,67.3,62.2,30.22,West,270,9.2,9.2,84,0.01,,,0.01,meteobridge,2013-10-15 18:34:00,
2013-10-15 12:40:00,66.2,61.9,30.22,North,0,4.5,6.9,86,0.01,,,0.02,meteobridge,2013-10-15 18:40:00,
2013-10-15 12:47:00,66.6,62.6,30.22,North,0,1.6,3.1,87,0.01,,,0.02,meteobridge,2013-10-15 18:47:00,
2013-10-15 12:53:00,67.3,63.3,30.22,North,0,0.0,0.0,87,0.01,,,0.02,meteobridge,2013-10-15 18:53:00,
2013-10-15 12:59:00,66.7,62.4,30.22,SE,135,3.1,3.1,86,0.01,,,0.02,meteobridge,2013-10-15 18:59:00,
2013-10-15 13:06:00,66.4,62.1,30.22,East,90,4.5,4.5,86,0.01,,,0.02,meteobridge,2013-10-15 19:06:00,
2013-10-15 13:12:00,66.6,63.0,30.21,SE,135,0.7,0.7,88,0.01,,,0.02,meteobridge,2013-10-15 19:12:00,
2013-10-15 13:18:00,66.7,63.1,30.21,SE,135,0.0,1.6,88,0.02,,,0.04,meteobridge,2013-10-15 19:18:00,
2013-10-15 13:25:00,66.2,62.6,30.21,North,0,1.6,5.4,88,0.02,,,0.04,meteobridge,2013-10-15 19:25:00,
2013-10-15 13:31:00,65.8,62.8,30.20,East,90,2.2,3.8,90,0.02,,,0.04,meteobridge,2013-10-15 19:31:00,
2013-10-15 13:40:00,65.3,62.1,30.21,North,0,5.4,5.4,89,0.04,,,0.05,meteobridge,2013-10-15 19:40:00,
2013-10-15 13:46:00,64.4,61.2,30.20,North,0,6.9,6.9,89,0.02,,,0.05,meteobridge,2013-10-15 19:46:00,
2013-10-15 13:52:00,64.0,60.8,30.19,SE,135,3.8,4.5,89,0.02,,,0.05,meteobridge,2013-10-15 19:52:00,
2013-10-15 13:59:00,64.4,61.2,30.20,East,90,5.4,5.4,89,0.02,,,0.05,meteobridge,2013-10-15 19:59:00,
2013-10-15 14:05:00,64.6,61.3,30.19,NE,45,2.2,3.8,89,0.02,,,0.05,meteobridge,2013-10-15 20:05:00,
2013-10-15 14:11:00,64.6,61.3,30.19,East,90,4.5,5.4,89,0.02,,,0.05,meteobridge,2013-10-15 20:11:00,
2013-10-15 14:18:00,64.6,61.3,30.19,North,0,2.2,3.1,89,0.01,,,0.05,meteobridge,2013-10-15 20:18:00,
2013-10-15 14:24:00,64.4,60.8,30.20,North,0,3.1,4.5,88,0.01,,,0.05,meteobridge,2013-10-15 20:24:00,
2013-10-15 14:30:00,64.8,61.2,30.19,SE,135,2.2,2.2,88,0.01,,,0.05,meteobridge,2013-10-15 20:30:00,
2013-10-15 14:39:00,64.6,61.0,30.19,East,90,0.0,2.2,88,0.01,,,0.06,meteobridge,2013-10-15 20:39:00,
2013-10-15 14:45:00,64.6,61.0,30.19,SE,135,0.0,0.0,88,0.01,,,0.06,meteobridge,2013-10-15 20:45:00,
2013-10-15 14:51:00,64.2,60.6,30.19,East,90,3.1,3.1,88,0.01,,,0.06,meteobridge,2013-10-15 20:51:00,
2013-10-15 14:58:00,63.9,60.3,30.19,SE,135,3.1,3.1,88,0.01,,,0.06,meteobridge,2013-10-15 20:58:00,
2013-10-15 15:04:00,63.5,59.9,30.20,East,90,3.8,6.0,88,0.01,,,0.06,meteobridge,2013-10-15 21:04:00,
2013-10-15 15:11:00,63.3,59.7,30.20,East,90,0.0,4.5,88,0.02,,,0.07,meteobridge,2013-10-15 21:11:00,
2013-10-15 15:17:00,63.3,59.7,30.20,SE,135,0.7,2.2,88,0.02,,,0.07,meteobridge,2013-10-15 21:17:00,
2013-10-15 15:23:00,63.5,59.9,30.20,East,90,3.1,3.8,88,0.05,,,0.09,meteobridge,2013-10-15 21:23:00,
2013-10-15 15:30:00,63.7,60.1,30.20,SE,135,0.0,0.0,88,0.05,,,0.09,meteobridge,2013-10-15 21:30:00,
2013-10-15 15:36:00,63.5,59.9,30.20,East,90,0.0,2.2,88,0.05,,,0.09,meteobridge,2013-10-15 21:36:00,
2013-10-15 15:42:00,63.3,59.7,30.20,North,0,0.0,0.0,88,0.06,,,0.12,meteobridge,2013-10-15 21:42:00,
2013-10-15 15:49:00,63.5,59.9,30.20,South,180,0.0,0.0,88,0.06,,,0.12,meteobridge,2013-10-15 21:49:00,
2013-10-15 15:55:00,63.3,59.7,30.20,East,90,0.0,0.7,88,0.08,,,0.14,meteobridge,2013-10-15 21:55:00,
2013-10-15 16:01:00,63.1,59.5,30.20,South,180,0.7,1.6,88,0.08,,,0.14,meteobridge,2013-10-15 22:01:00,
2013-10-15 16:08:00,63.1,59.9,30.20,South,180,0.0,2.2,89,0.11,,,0.17,meteobridge,2013-10-15 22:08:00,
2013-10-15 16:14:00,63.1,59.9,30.20,South,180,0.0,0.0,89,0.09,,,0.17,meteobridge,2013-10-15 22:14:00,
2013-10-15 16:20:00,63.3,60.1,30.21,South,180,0.0,0.0,89,0.08,,,0.17,meteobridge,2013-10-15 22:20:00,
2013-10-15 16:27:00,63.0,59.7,30.21,South,180,0.0,1.6,89,0.08,,,0.18,meteobridge,2013-10-15 22:27:00,
2013-10-15 16:33:00,63.3,60.1,30.21,South,180,0.0,0.0,89,0.09,,,0.19,meteobridge,2013-10-15 22:33:00,
2013-10-15 16:39:00,63.0,59.7,30.21,East,90,0.7,2.2,89,0.09,,,0.20,meteobridge,2013-10-15 22:39:00,
2013-10-15 16:46:00,63.0,59.9,30.21,North,0,0.0,0.0,90,0.09,,,0.21,meteobridge,2013-10-15 22:46:00,
2013-10-15 16:52:00,63.0,59.9,30.21,East,90,0.0,0.0,90,0.11,,,0.24,meteobridge,2013-10-15 22:52:00,
2013-10-15 17:00:00,62.6,59.5,30.21,South,180,0.0,0.0,90,0.09,,,0.24,meteobridge,2013-10-15 23:00:00,
2013-10-15 17:07:00,62.8,59.7,30.21,South,180,0.0,1.6,90,0.09,,,0.26,meteobridge,2013-10-15 23:07:00,
2013-10-15 17:13:00,62.6,59.9,30.21,SW,225,0.0,0.0,91,0.09,,,0.26,meteobridge,2013-10-15 23:13:00,
2013-10-15 17:20:00,62.4,60.1,30.21,SE,135,0.0,0.0,92,0.09,,,0.26,meteobridge,2013-10-15 23:20:00,
2013-10-15 17:26:00,62.2,59.9,30.21,East,90,0.0,0.0,92,0.08,,,0.26,meteobridge,2013-10-15 23:26:00,
2013-10-15 17:32:00,62.2,59.9,30.22,South,180,0.0,0.0,92,0.07,,,0.26,meteobridge,2013-10-15 23:32:00,
2013-10-15 17:39:00,62.1,59.4,30.22,SE,135,0.0,0.0,91,0.06,,,0.26,meteobridge,2013-10-15 23:39:00,
2013-10-15 17:45:00,62.2,59.5,30.22,SW,225,0.0,0.0,91,0.05,,,0.26,meteobridge,2013-10-15 23:45:00,
2013-10-15 17:51:00,62.1,59.4,30.23,South,180,1.6,1.6,91,0.02,,,0.26,meteobridge,2013-10-15 23:51:00,
2013-10-15 17:58:00,62.1,59.4,30.24,South,180,0.0,3.1,91,0.02,,,0.26,meteobridge,2013-10-15 23:58:00,
2013-10-15 18:04:00,62.2,59.5,30.24,NE,45,2.2,4.5,91,0.01,,,0.26,meteobridge,2013-10-16 00:04:00,
2013-10-15 18:10:00,62.2,59.5,30.24,NE,45,0.0,2.2,91,0.01,,,0.27,meteobridge,2013-10-16 00:10:00,
2013-10-15 18:17:00,62.2,59.5,30.23,North,0,0.0,0.7,91,0.02,,,0.28,meteobridge,2013-10-16 00:17:00,
2013-10-15 18:23:00,62.2,59.5,30.24,East,90,0.0,0.0,91,0.04,,,0.30,meteobridge,2013-10-16 00:23:00,
2013-10-15 18:29:00,62.2,59.5,30.24,East,90,0.0,0.0,91,0.05,,,0.31,meteobridge,2013-10-16 00:29:00,
2013-10-15 18:36:00,62.1,59.4,30.24,SE,135,2.2,2.2,91,0.06,,,0.32,meteobridge,2013-10-16 00:36:00,
2013-10-15 18:42:00,62.4,60.1,30.25,South,180,1.6,1.6,92,0.07,,,0.33,meteobridge,2013-10-16 00:42:00,
2013-10-15 18:48:00,62.2,59.9,30.24,West,270,0.0,0.0,92,0.08,,,0.34,meteobridge,2013-10-16 00:48:00,
2013-10-15 18:55:00,62.1,59.7,30.25,SW,225,0.0,0.0,92,0.09,,,0.35,meteobridge,2013-10-16 00:55:00,
2013-10-15 19:01:00,62.1,59.7,30.25,South,180,0.0,0.0,92,0.09,,,0.35,meteobridge,2013-10-16 01:01:00,
2013-10-15 19:07:00,61.9,59.5,30.25,South,180,0.0,0.0,92,0.08,,,0.35,meteobridge,2013-10-16 01:07:00,
2013-10-15 19:14:00,61.9,59.5,30.26,West,270,0.0,0.0,92,0.08,,,0.37,meteobridge,2013-10-16 01:14:00,
2013-10-15 19:20:00,61.9,59.5,30.26,East,90,1.6,1.6,92,0.09,,,0.38,meteobridge,2013-10-16 01:20:00,
2013-10-15 19:26:00,61.7,59.4,30.26,North,0,0.0,0.0,92,0.07,,,0.38,meteobridge,2013-10-16 01:26:00,
2013-10-15 19:33:00,61.7,59.4,30.27,South,180,0.0,0.0,92,0.07,,,0.38,meteobridge,2013-10-16 01:33:00,
2013-10-15 19:39:00,61.5,58.8,30.27,SE,135,4.5,4.5,91,0.05,,,0.38,meteobridge,2013-10-16 01:39:00,
2013-10-15 19:48:00,61.5,58.6,30.27,East,90,1.6,2.2,90,0.05,,,0.38,meteobridge,2013-10-16 01:48:00,
2013-10-15 19:54:00,61.3,58.5,30.27,South,180,4.5,5.4,90,0.02,,,0.38,meteobridge,2013-10-16 01:54:00,
2013-10-15 20:00:00,61.3,58.5,30.28,SE,135,3.1,3.8,90,0.02,,,0.38,meteobridge,2013-10-16 02:00:00,
2013-10-15 20:07:00,61.5,58.6,30.27,South,180,0.0,0.0,90,0.02,,,0.38,meteobridge,2013-10-16 02:07:00,
2013-10-15 20:13:00,61.3,58.5,30.27,South,180,0.0,0.0,90,0.01,,,0.38,meteobridge,2013-10-16 02:13:00,
2013-10-15 20:21:00,61.2,58.3,30.28,SE,135,2.2,2.2,90,0.00,,,0.38,meteobridge,2013-10-16 02:21:00,
2013-10-15 20:28:00,61.2,58.3,30.28,SE,135,3.1,3.1,90,0.00,,,0.38,meteobridge,2013-10-16 02:28:00,
2013-10-15 20:34:00,61.2,57.9,30.27,East,90,3.1,3.1,89,0.00,,,0.38,meteobridge,2013-10-16 02:34:00,
2013-10-15 20:40:00,61.2,57.9,30.27,South,180,1.6,3.8,89,0.00,,,0.38,meteobridge,2013-10-16 02:40:00,
2013-10-15 20:47:00,61.0,57.4,30.27,SE,135,2.2,2.2,88,0.00,,,0.38,meteobridge,2013-10-16 02:47:00,
2013-10-15 20:53:00,61.2,57.6,30.28,SE,135,2.2,4.5,88,0.00,,,0.38,meteobridge,2013-10-16 02:53:00,
2013-10-15 20:59:00,61.0,57.4,30.27,East,90,2.2,2.2,88,0.00,,,0.38,meteobridge,2013-10-16 02:59:00,
2013-10-15 21:06:00,61.0,57.4,30.27,East,90,0.7,2.2,88,0.00,,,0.38,meteobridge,2013-10-16 03:06:00,
2013-10-15 21:12:00,61.3,58.1,30.28,South,180,3.1,3.1,89,0.00,,,0.38,meteobridge,2013-10-16 03:12:00,
2013-10-15 21:18:00,61.0,57.7,30.28,SE,135,3.1,3.1,89,0.00,,,0.38,meteobridge,2013-10-16 03:18:00,
2013-10-15 21:29:00,61.2,57.9,30.28,East,90,1.6,2.2,89,0.00,,,0.38,meteobridge,2013-10-16 03:29:00,
2013-10-15 21:37:00,61.2,57.9,30.28,SE,135,2.2,2.2,89,0.00,,,0.38,meteobridge,2013-10-16 03:37:00,
2013-10-15 21:44:00,61.0,58.1,30.27,SE,135,5.4,9.2,90,0.00,,,0.38,meteobridge,2013-10-16 03:44:00,
2013-10-15 21:50:00,61.3,58.6,30.28,West,270,2.2,3.1,91,0.00,,,0.38,meteobridge,2013-10-16 03:50:00,
2013-10-15 21:57:00,61.5,58.8,30.28,South,180,0.0,0.0,91,0.00,,,0.38,meteobridge,2013-10-16 03:57:00,
2013-10-15 22:01:00,61.7,59.4,30.28,SW,225,0.0,0.0,92,0.00,,,0.38,meteobridge,2013-10-16 04:01:00,
2013-10-15 22:05:00,61.5,59.2,30.28,South,180,0.0,2.2,92,0.00,,,0.38,meteobridge,2013-10-16 04:05:00,
2013-10-15 22:11:00,61.9,59.5,30.28,South,180,0.0,0.0,92,0.00,,,0.38,meteobridge,2013-10-16 04:11:00,
2013-10-15 22:16:00,62.1,59.7,30.28,South,180,0.0,0.0,92,0.00,,,0.38,meteobridge,2013-10-16 04:16:00,
2013-10-15 22:18:00,62.1,59.7,30.28,South,180,0.0,0.0,92,0.00,,,0.38,meteobridge,2013-10-16 04:18:00,
2013-10-15 22:24:00,61.9,59.5,30.28,South,180,1.6,1.6,92,0.00,,,0.38,meteobridge,2013-10-16 04:24:00,
2013-10-15 22:30:00,61.7,59.4,30.28,SW,225,0.0,0.0,92,0.00,,,0.38,meteobridge,2013-10-16 04:30:00,
2013-10-15 22:39:00,61.5,59.2,30.27,East,90,0.0,1.6,92,0.00,,,0.38,meteobridge,2013-10-16 04:39:00,
2013-10-15 22:45:00,61.7,59.4,30.27,SE,135,2.2,2.2,92,0.00,,,0.38,meteobridge,2013-10-16 04:45:00,
2013-10-15 22:52:00,62.1,59.7,30.27,South,180,1.6,2.2,92,0.00,,,0.38,meteobridge,2013-10-16 04:52:00,
2013-10-15 22:58:00,62.2,59.5,30.27,SE,135,0.0,0.0,91,0.00,,,0.38,meteobridge,2013-10-16 04:58:00,
2013-10-15 23:04:00,62.2,59.2,30.27,North,0,0.0,0.0,90,0.00,,,0.38,meteobridge,2013-10-16 05:04:00,
2013-10-15 23:11:00,61.9,59.0,30.27,South,180,0.0,0.0,90,0.00,,,0.38,meteobridge,2013-10-16 05:11:00,
2013-10-15 23:17:00,61.9,59.2,30.27,South,180,0.0,0.0,91,0.00,,,0.38,meteobridge,2013-10-16 05:17:00,
2013-10-15 23:23:00,61.7,59.0,30.27,SE,135,2.2,2.2,91,0.00,,,0.38,meteobridge,2013-10-16 05:23:00,
2013-10-15 23:30:00,61.9,59.2,30.27,South,180,0.0,1.6,91,0.00,,,0.38,meteobridge,2013-10-16 05:30:00,
2013-10-15 23:36:00,61.9,59.2,30.27,South,180,1.6,1.6,91,0.00,,,0.38,meteobridge,2013-10-16 05:36:00,
2013-10-15 23:42:00,61.9,59.2,30.26,East,90,0.0,1.6,91,0.00,,,0.38,meteobridge,2013-10-16 05:42:00,
2013-10-15 23:49:00,61.7,59.0,30.26,East,90,1.6,1.6,91,0.00,,,0.38,meteobridge,2013-10-16 05:49:00,
2013-10-15 23:55:00,61.9,59.2,30.26,South,180,0.7,2.2,91,0.00,,,0.38,meteobridge,2013-10-16 05:55:00,